Muren, Mongolia
Current Conditions -  °F | °C
As of 10:30 PM on Friday 28 Nov 2014 (Local Time) from UIII Reporting Station
Clear Clear  
Wind Chill:   Ceiling: Unl
Heat Index: 12°   Visibility: 6mi
Dew Point:   Wind: 4mph
Humidity: 79%   Direction: 310°NW
Pressure: 30.06"   Gusts: NA
Location:  49.66°N, 100.1°E
Report Text: UIII 281430Z 31002MPS CAVOK M11/M14 Q1018 NOSIG RMK QFE718/095830CLRD60
Loading
Personal Weather Stations






























Interactive Weather Map New forecast layout! Learn more

10-Day Weather Forecast

Advertisements
Track Severe Weather on mobile